Weather reports worldwide

Advertisment
Tibenham Airfield, United Kingdom (3931): temperature & dewpoint: 15.05.2019 15:00:00 - 21.05.2019 15:00:00 (BST)Tibenham Airfield, United Kingdom (3931): temperature -20cm & temperature -100cm: 15.05.2019 15:00:00 - 21.05.2019 15:00:00 (BST)Tibenham Airfield, United Kingdom (3931): wind speed: 15.05.2019 15:00:00 - 21.05.2019 15:00:00 (BST)Tibenham Airfield, United Kingdom (3931): wind direction: 15.05.2019 15:00:00 - 21.05.2019 15:00:00 (BST)Tibenham Airfield, United Kingdom (3931): reduced air pressure: 15.05.2019 15:00:00 - 21.05.2019 15:00:00 (BST)Tibenham Airfield, United Kingdom (3931): sunshine duration: 15.05.2019 15:00:00 - 21.05.2019 15:00:00 (BST)Tibenham Airfield, United Kingdom (3931): precipitation: 15.05.2019 15:00:00 - 21.05.2019 15:00:00 (BST)
Date & Time tt [°C] td [°C] tt -20cm [°C] tt -100cm [°C] ff [km/h] ff [kn] dd ppp [hPa] sd [min] rr [mm]
21.05.2019 15:00:00 - - - - - - - - - 0,0
21.05.2019 14:00:00 17,8 8,2 - - 16 9 NNW 1017,0 54 0,0
21.05.2019 13:00:00 16,9 11,0 - - 18 10 NNW 1016,9 42 0,0
21.05.2019 12:00:00 16,8 9,7 - - 15 8 NW 1016,7 48 0,0
21.05.2019 11:00:00 15,2 9,8 - - 15 8 WNW 1016,7 60 0,0
21.05.2019 10:00:00 14,5 10,3 13,2 11,5 16 9 W 1016,6 60 0,0
21.05.2019 09:00:00 12,1 10,4 - - 15 8 W 1016,4 54 0,0
21.05.2019 08:00:00 9,6 9,6 - - 11 6 W 1016,3 12 0,0
21.05.2019 07:00:00 8,7 8,7 - - 9 5 WNW 1016,1 0 0,0
21.05.2019 06:00:00 7,4 7,4 - - 8 4 NW 1015,8 0 0,2
21.05.2019 05:00:00 7,3 7,3 - - 8 4 NW 1015,5 0 0,0
21.05.2019 04:00:00 7,6 7,6 - - 9 5 NW 1015,3 0 0,0
21.05.2019 03:00:00 7,7 7,6 - - 8 4 NNW 1015,2 0 0,0
21.05.2019 02:00:00 7,9 7,9 - - 8 4 NW 1014,7 0 0,0
21.05.2019 01:00:00 7,9 7,8 - - 5 3 NNW 1015,0 - 0,0
21.05.2019 00:00:00 7,5 6,9 - - 5 3 N 1014,8 0 0,0
20.05.2019 23:00:00 8,9 7,6 - - 5 3 NNW 1014,6 0 0,0
20.05.2019 22:00:00 10,2 8,1 - - 8 4 NNW 1014,3 0 0,0
20.05.2019 21:00:00 11,6 7,7 - - 8 4 N 1013,5 12 0,0
20.05.2019 20:00:00 14,7 9,3 - - 8 4 N 1013,1 60 0,0
20.05.2019 19:00:00 16,1 9,7 - - 9 5 N 1012,7 60 0,0
20.05.2019 18:00:00 16,6 8,4 - - 16 9 N 1012,5 60 0,0
20.05.2019 17:00:00 16,7 9,6 - - 16 9 NNW 1012,4 48 0,0
20.05.2019 16:00:00 15,4 9,8 - - 18 10 N 1012,6 0 0,0
20.05.2019 15:00:00 14,5 10,0 - - 15 8 NNW 1012,5 0 0,0
20.05.2019 14:00:00 14,1 10,4 - - 16 9 NW 1012,4 0 0,0
20.05.2019 13:00:00 14,2 11,0 - - 16 9 NNW 1011,9 24 0,0
20.05.2019 12:00:00 14,0 11,3 - - 18 10 NNW 1011,8 6 0,0
20.05.2019 11:00:00 12,5 10,7 - - 15 8 NW 1011,8 0 0,0
20.05.2019 10:00:00 11,8 10,3 13,2 11,4 13 7 NW 1011,7 0 0,0
20.05.2019 09:00:00 10,7 10,0 - - 11 6 NNW 1011,2 0 0,0
20.05.2019 08:00:00 10,3 9,9 - - 9 5 NNW 1011,0 0 0,0
20.05.2019 07:00:00 10,0 9,6 - - 9 5 N 1010,5 0 0,2
20.05.2019 06:00:00 9,8 9,4 - - 11 6 N 1010,2 0 0,0
20.05.2019 05:00:00 9,7 9,4 - - 11 6 N 1010,1 0 0,0
20.05.2019 04:00:00 9,8 9,5 - - 9 5 NNW 1010,1 0 0,0
20.05.2019 03:00:00 9,8 9,5 - - 9 5 NNW 1010,2 0 0,0
20.05.2019 02:00:00 9,8 9,5 - - 9 5 N 1010,4 0 0,0
20.05.2019 01:00:00 9,8 9,6 - - 8 4 N 1010,6 - 0,0
20.05.2019 00:00:00 10,1 9,8 - - 9 5 NNW 1010,7 0 0,0
19.05.2019 23:00:00 10,3 9,9 - - 5 3 N 1010,8 0 0,0
19.05.2019 22:00:00 10,5 9,8 - - 4 2 N 1010,8 0 0,2
19.05.2019 21:00:00 10,9 10,3 - - 9 5 N 1010,3 0 0,4
19.05.2019 20:00:00 11,3 10,6 - - 9 5 NE 1010,0 0 0,4
19.05.2019 19:00:00 11,8 10,9 - - 11 6 E 1009,8 0 0,4
19.05.2019 18:00:00 13,5 10,4 - - 9 5 NE 1009,6 0 0,2
19.05.2019 17:00:00 14,2 10,2 - - 9 5 ENE 1009,6 0 0,0
19.05.2019 16:00:00 15,1 10,6 - - 11 6 ENE 1009,7 0 0,0
19.05.2019 15:00:00 15,5 9,7 - - 9 5 NNE 1009,8 0 0,0
19.05.2019 14:00:00 16,0 9,8 - - 9 5 NE 1009,7 0 0,0
19.05.2019 13:00:00 16,2 9,7 - - 5 3 NE 1009,6 18 0,0
19.05.2019 12:00:00 15,9 10,8 - - 5 3 ENE 1009,6 6 0,0
19.05.2019 11:00:00 14,6 9,8 - - 9 5 NNE 1009,6 54 0,0
19.05.2019 10:00:00 13,3 10,3 12,9 11,2 8 4 NNE 1009,6 36 0,0
19.05.2019 09:00:00 11,3 9,8 - - 8 4 N 1009,4 18 0,0
19.05.2019 08:00:00 9,7 9,6 - - 8 4 N 1009,0 6 0,0
19.05.2019 07:00:00 7,9 7,9 - - 5 3 NNE 1008,8 0 0,0
19.05.2019 06:00:00 7,1 7,1 - - 4 2 NE 1008,8 0 0,0
19.05.2019 05:00:00 6,3 6,2 - - 4 2 N 1008,5 0 0,0
19.05.2019 04:00:00 4,9 4,6 - - 4 2 NNE 1008,6 0 0,0
19.05.2019 03:00:00 5,7 5,3 - - 4 2 ESE 1008,5 0 0,0
19.05.2019 02:00:00 7,0 6,4 - - 4 2 E 1008,4 0 0,0
19.05.2019 01:00:00 8,4 7,8 - - 4 2 NNE 1008,2 - 0,0
19.05.2019 00:00:00 9,4 8,4 - - 4 2 ENE 1008,5 0 0,0
18.05.2019 23:00:00 9,6 8,3 - - 4 2 E 1008,5 0 0,0
18.05.2019 22:00:00 11,0 9,0 - - 4 2 E 1008,3 0 0,0
18.05.2019 21:00:00 11,5 9,1 - - 5 3 ESE 1008,0 0 0,0
18.05.2019 20:00:00 12,6 9,8 - - 11 6 E 1007,3 6 0,0
18.05.2019 19:00:00 12,6 10,9 - - 9 5 NE 1007,1 0 0,0
18.05.2019 18:00:00 13,4 10,6 - - 11 6 N 1006,6 0 0,0
18.05.2019 17:00:00 15,6 9,9 - - 4 2 ESE 1006,2 12 0,0
18.05.2019 16:00:00 16,5 8,9 - - 4 2 S 1006,1 30 0,0
18.05.2019 15:00:00 16,4 9,6 - - 5 3 SSW 1006,0 0 0,0
18.05.2019 14:00:00 15,3 8,9 - - 4 2 W 1006,0 12 0,0
18.05.2019 13:00:00 15,9 10,8 - - 4 2 WSW 1006,0 6 0,0
18.05.2019 12:00:00 13,9 9,6 - - 8 4 SSW 1006,2 0 0,0
18.05.2019 11:00:00 13,6 10,1 - - 2 1 S 1006,1 0 0,0
18.05.2019 10:00:00 12,5 9,8 12,5 11,0 2 1 NNW 1006,0 0 0,0
18.05.2019 09:00:00 11,3 10,0 - - 4 2 W 1005,9 0 0,0
18.05.2019 08:00:00 10,4 10,3 - - 4 2 NNE 1005,7 0 0,0
18.05.2019 07:00:00 10,0 10,0 - - 2 1 N 1005,5 0 0,0
18.05.2019 06:00:00 9,7 9,6 - - 4 2 N 1005,3 0 0,0
18.05.2019 05:00:00 9,3 9,2 - - 5 3 NNW 1005,2 0 0,0
18.05.2019 04:00:00 9,4 9,4 - - 4 2 N 1005,5 0 0,0
18.05.2019 03:00:00 9,4 9,3 - - 4 2 N 1006,0 0 0,0
18.05.2019 02:00:00 9,5 9,4 - - 2 1 N 1006,3 0 0,0
18.05.2019 01:00:00 9,6 9,6 - - 4 2 N 1006,5 - 0,2
18.05.2019 00:00:00 9,7 9,7 - - 2 1 NNE 1006,6 0 0,2
17.05.2019 23:00:00 9,9 9,8 - - 4 2 NE 1006,9 0 0,6
17.05.2019 22:00:00 10,0 9,9 - - 5 3 NE 1007,1 0 0,2
17.05.2019 21:00:00 10,1 9,9 - - 5 3 NNE 1007,2 0 0,0
17.05.2019 20:00:00 10,1 9,9 - - 5 3 NNE 1007,2 0 0,2
17.05.2019 19:00:00 10,1 9,8 - - 8 4 NE 1007,2 0 0,0
17.05.2019 18:00:00 10,4 9,8 - - 11 6 NNE 1007,5 0 0,0
17.05.2019 17:00:00 10,7 10,1 - - 11 6 NNE 1007,9 0 0,0
17.05.2019 16:00:00 10,3 10,0 - - 11 6 NNE 1008,4 0 0,2
17.05.2019 15:00:00 10,4 9,9 - - 15 8 NE 1008,6 0 0,2
17.05.2019 14:00:00 10,5 9,8 - - 16 9 NE 1008,7 0 0,0
17.05.2019 13:00:00 11,6 9,2 - - 13 7 NE 1008,9 0 0,0
17.05.2019 12:00:00 11,7 9,2 - - 16 9 NE 1009,0 0 0,0
17.05.2019 11:00:00 12,0 9,0 - - 13 7 ENE 1009,2 0 0,0
17.05.2019 10:00:00 11,8 9,5 12,7 11,0 15 8 ENE 1009,6 0 0,0
17.05.2019 09:00:00 11,3 9,6 - - 11 6 ENE 1010,1 0 0,0
17.05.2019 08:00:00 11,2 9,3 - - 13 7 NE 1010,2 0 0,0
17.05.2019 07:00:00 10,5 8,9 - - 11 6 NE 1010,5 0 0,0
17.05.2019 06:00:00 10,9 8,1 - - 15 8 NE 1010,3 0 0,0
17.05.2019 05:00:00 10,8 7,6 - - 16 9 NNE 1010,6 0 0,0
17.05.2019 04:00:00 10,4 7,4 - - 18 10 NE 1011,0 0 0,0
17.05.2019 03:00:00 9,9 7,1 - - 15 8 NNE 1011,7 0 0,0
17.05.2019 02:00:00 9,9 8,1 - - 13 7 N 1012,8 0 0,0
17.05.2019 01:00:00 9,6 8,3 - - 13 7 NNE 1014,0 - 0,0
17.05.2019 00:00:00 10,1 7,8 - - 13 7 NE 1014,9 0 0,0
16.05.2019 23:00:00 9,8 7,5 - - 13 7 NE 1015,5 0 0,0
16.05.2019 22:00:00 9,1 6,8 - - 15 8 NE 1015,9 0 0,0
16.05.2019 21:00:00 9,7 6,2 - - 16 9 NE 1016,0 12 0,0
16.05.2019 20:00:00 11,1 6,0 - - 16 9 NE 1016,4 60 0,0
16.05.2019 19:00:00 11,9 5,8 - - 15 8 NE 1017,1 6 0,0
16.05.2019 18:00:00 12,9 3,0 - - 21 11 ENE 1017,4 0 0,0
16.05.2019 17:00:00 13,0 3,6 - - 18 10 ENE 1018,2 0 0,0
16.05.2019 16:00:00 14,4 3,6 - - 28 15 ENE 1018,4 12 0,0
16.05.2019 15:00:00 14,1 5,3 - - 24 13 ENE 1019,3 0 0,0
16.05.2019 14:00:00 14,5 4,3 - - 26 14 ENE 1020,1 48 0,0
16.05.2019 13:00:00 15,0 3,6 - - 18 10 E 1020,6 60 0,0
16.05.2019 12:00:00 14,6 2,6 - - 24 13 E 1021,0 60 0,0
16.05.2019 11:00:00 14,3 3,9 - - 21 11 E 1021,4 60 0,0
16.05.2019 10:00:00 13,8 4,3 12,4 10,9 21 11 E 1021,7 60 0,0
16.05.2019 09:00:00 12,6 8,2 - - 16 9 E 1022,1 60 0,0
16.05.2019 08:00:00 11,0 9,1 - - 15 8 ENE 1022,1 60 0,0
16.05.2019 07:00:00 8,2 8,1 - - 8 4 NE 1022,2 60 0,0
16.05.2019 06:00:00 5,0 4,9 - - 8 4 NE 1022,2 12 0,0
16.05.2019 05:00:00 3,7 3,4 - - 5 3 NE 1022,3 0 0,0
16.05.2019 04:00:00 4,4 4,2 - - 8 4 NE 1022,7 0 0,0
16.05.2019 03:00:00 4,4 4,1 - - 8 4 NE 1023,3 0 0,0
16.05.2019 02:00:00 4,2 3,8 - - 8 4 NNE 1023,8 0 0,0
16.05.2019 01:00:00 4,1 3,5 - - 5 3 NE 1024,3 - 0,0
16.05.2019 00:00:00 5,1 4,3 - - 5 3 NNE 1024,5 0 0,0
15.05.2019 23:00:00 5,8 4,2 - - 5 3 NE 1024,8 0 0,0
15.05.2019 22:00:00 6,8 3,8 - - 5 3 ENE 1025,3 0 0,0
15.05.2019 21:00:00 8,7 4,3 - - 8 4 ENE 1025,2 12 0,0
15.05.2019 20:00:00 10,8 4,3 - - 9 5 ESE 1025,3 60 0,0
15.05.2019 19:00:00 13,0 4,7 - - 15 8 E 1025,0 60 0,0
15.05.2019 18:00:00 14,1 4,6 - - 13 7 E 1025,3 60 0,0
15.05.2019 17:00:00 15,0 5,9 - - 16 9 ENE 1025,3 60 0,0
15.05.2019 16:00:00 15,5 6,5 - - 15 8 E 1025,8 60 0,0
15.05.2019 15:00:00 16,3 7,3 - - 11 6 E 1026,2 60 0,0

tt = temperature
td = dewpoint
tt -20cm = temperature -20cm
tt -100cm = temperature -100cm
ff = wind speed
dd = wind direction
ppp = reduced air pressure
sd = sunshine duration
rr = precipitation

Next stations